Time;durP1;ratioP1;P1;durP2;ratioP2;P2;SDS_P1;SDS_P2;PMS_P1;PMS_P2;Temp;Humidity;BMP_temperature;BMP_pressure;BME280_temperature;BME280_humidity;BME280_pressure;Samples;Min_cycle;Max_cycle;Signal;HPM_P1;HPM_P2
2023/06/03 00:01:54;;;;;;;1999.90;999.90;;;;;;;16.12;100.00;97850.28;5073408;28;20053;-74
2023/06/03 00:04:21;;;;;;;1999.90;999.90;;;;;;;15.89;100.00;97853.31;5055384;28;20394;-75
2023/06/03 00:06:46;;;;;;;1999.90;999.90;;;;;;;15.79;100.00;97858.41;5055587;28;20043;-74
2023/06/03 00:09:12;;;;;;;1999.90;999.90;;;;;;;15.75;100.00;97854.72;5073334;28;20033;-74
2023/06/03 00:11:37;;;;;;;1999.90;999.90;;;;;;;15.75;100.00;97858.28;5073403;28;20511;-74
2023/06/03 00:14:04;;;;;;;1999.90;999.90;;;;;;;15.84;100.00;97859.03;5073660;28;20036;-75
2023/06/03 00:16:32;;;;;;;1999.90;999.90;;;;;;;15.69;100.00;97859.59;5073056;28;20388;-75
2023/06/03 00:18:57;;;;;;;1999.90;999.90;;;;;;;15.75;100.00;97851.94;5073059;28;20039;-74
2023/06/03 00:21:23;;;;;;;1999.90;999.90;;;;;;;15.74;100.00;97859.41;5072900;28;20107;-75
2023/06/03 00:23:49;;;;;;;1999.90;999.90;;;;;;;15.81;100.00;97853.38;5073470;28;20052;-75
2023/06/03 00:26:14;;;;;;;1999.90;999.90;;;;;;;15.88;100.00;97862.72;5072378;28;20449;-74
2023/06/03 00:28:40;;;;;;;1999.90;999.90;;;;;;;15.90;100.00;97867.94;5072028;28;20045;-75
2023/06/03 00:31:05;;;;;;;1999.90;999.90;;;;;;;15.93;100.00;97854.28;5073007;28;20550;-76
2023/06/03 00:33:31;;;;;;;1999.90;999.90;;;;;;;15.98;100.00;97853.28;5054812;28;20113;-75
2023/06/03 00:35:56;;;;;;;1999.90;999.90;;;;;;;15.87;100.00;97857.56;5054866;28;20110;-75
2023/06/03 00:38:21;;;;;;;1999.90;999.90;;;;;;;15.83;100.00;97865.69;5072373;28;20021;-75
2023/06/03 00:40:47;;;;;;;1999.90;999.90;;;;;;;15.74;100.00;97847.56;5072629;28;20020;-73
2023/06/03 00:43:13;;;;;;;1999.90;999.90;;;;;;;15.73;100.00;97860.53;5055020;28;20481;-73
2023/06/03 00:45:39;;;;;;;1999.90;999.90;;;;;;;15.64;100.00;97862.53;5072229;28;20044;-74
2023/06/03 00:48:04;;;;;;;1999.90;999.90;;;;;;;15.70;100.00;97865.91;5054734;28;20099;-73
2023/06/03 00:50:30;;;;;;;1999.90;999.90;;;;;;;15.69;100.00;97873.41;5072282;28;20039;-74
2023/06/03 00:52:56;;;;;;;1999.90;999.90;;;;;;;15.71;100.00;97876.63;5072423;28;20029;-75
2023/06/03 00:55:22;;;;;;;1999.90;999.90;;;;;;;15.58;100.00;97874.06;5072302;28;20127;-74
2023/06/03 00:57:50;;;;;;;1999.90;999.90;;;;;;;15.51;100.00;97883.66;5054382;28;20052;-74
2023/06/03 01:00:15;;;;;;;1999.90;999.90;;;;;;;15.51;100.00;97880.09;5071659;28;20098;-74
2023/06/03 01:02:43;;;;;;;1999.90;999.90;;;;;;;15.47;100.00;97873.59;5084283;28;20473;-74
2023/06/03 01:05:10;;;;;;;1999.90;999.90;;;;;;;15.57;100.00;97880.72;5073934;28;20834;-73
2023/06/03 01:08:01;;;;;;;1999.90;999.90;;;;;;;15.51;100.00;97885.59;5074588;28;20062;-73
2023/06/03 01:10:48;;;;;;;1999.90;999.90;;;;;;;15.46;100.00;97894.03;5074243;28;20043;-73
2023/06/03 01:13:22;;;;;;;1999.90;999.90;;;;;;;15.39;100.00;97882.69;5092531;28;20024;-73
2023/06/03 01:15:53;;;;;;;1999.90;999.90;;;;;;;15.34;100.00;97883.69;5073883;28;20059;-75
2023/06/03 01:18:19;;;;;;;1999.90;999.90;;;;;;;15.34;100.00;97886.44;5092353;28;20009;-73
2023/06/03 01:20:45;;;;;;;1999.90;999.90;;;;;;;15.36;100.00;97880.59;5047663;28;20486;-74
2023/06/03 01:23:14;;;;;;;1999.90;999.90;;;;;;;15.40;100.00;97878.81;5051752;28;20482;-74
2023/06/03 01:25:42;;;;;;;1999.90;999.90;;;;;;;15.50;100.00;97879.31;5052022;28;20033;-75
2023/06/03 01:28:07;;;;;;;1999.90;999.90;;;;;;;15.57;100.00;97878.75;5052290;28;20470;-75
2023/06/03 01:30:33;;;;;;;1999.90;999.90;;;;;;;15.71;100.00;97878.56;5051884;28;20113;-75
2023/06/03 01:32:59;;;;;;;1999.90;999.90;;;;;;;15.76;100.00;97887.47;5051604;28;20021;-74
2023/06/03 01:35:25;;;;;;;1999.90;999.90;;;;;;;15.73;100.00;97877.09;5051639;28;20036;-74
2023/06/03 01:37:51;;;;;;;1999.90;999.90;;;;;;;15.83;100.00;97876.72;5051507;28;20029;-75
2023/06/03 01:40:17;;;;;;;1999.90;999.90;;;;;;;15.83;100.00;97868.44;5051663;28;20036;-74
2023/06/03 01:42:42;;;;;;;1999.90;999.90;;;;;;;15.87;100.00;97866.66;5051596;28;20024;-73
2023/06/03 01:45:08;;;;;;;1999.90;999.90;;;;;;;15.89;100.00;97864.38;5051296;28;20130;-74
2023/06/03 01:47:34;;;;;;;1999.90;999.90;;;;;;;15.81;100.00;97867.97;5051278;28;20041;-74
2023/06/03 01:49:59;;;;;;;1999.90;999.90;;;;;;;15.78;100.00;97865.06;5050681;28;20029;-73
2023/06/03 01:52:26;;;;;;;1999.90;999.90;;;;;;;15.85;100.00;97859.84;5033293;28;20458;-74
2023/06/03 01:54:51;;;;;;;1999.90;999.90;;;;;;;15.86;100.00;97873.31;5059049;28;20025;-74
2023/06/03 01:57:17;;;;;;;1999.90;999.90;;;;;;;15.89;100.00;97875.41;5069641;28;20051;-74
2023/06/03 01:59:42;;;;;;;1999.90;999.90;;;;;;;15.75;100.00;97866.56;5063670;28;20027;-73
2023/06/03 02:02:07;;;;;;;1999.90;999.90;;;;;;;15.87;100.00;97883.22;5039430;28;20078;-73
2023/06/03 02:04:33;;;;;;;1999.90;999.90;;;;;;;15.84;100.00;97872.84;5050614;28;20036;-73
2023/06/03 02:06:59;;;;;;;1999.90;999.90;;;;;;;15.86;100.00;97884.34;5052162;28;20029;-74
2023/06/03 02:09:30;;;;;;;1999.90;999.90;;;;;;;15.86;100.00;97881.56;5070457;28;20029;-75
2023/06/03 02:11:56;;;;;;;1999.90;999.90;;;;;;;15.86;100.00;97881.56;5063223;28;20060;-74
2023/06/03 02:14:23;;;;;;;1999.90;999.90;;;;;;;15.77;100.00;97880.00;5065343;28;20039;-74
2023/06/03 02:16:48;;;;;;;1999.90;999.90;;;;;;;15.78;100.00;97885.19;5070094;28;20650;-72
2023/06/03 02:19:16;;;;;;;1999.90;999.90;;;;;;;15.71;100.00;97878.56;5070522;28;20108;-72
2023/06/03 02:21:42;;;;;;;1999.90;999.90;;;;;;;15.78;100.00;97887.13;5069621;28;20024;-74
2023/06/03 02:24:09;;;;;;;1999.90;999.90;;;;;;;15.61;100.00;97885.25;5070306;28;20025;-74
2023/06/03 02:26:35;;;;;;;1999.90;999.90;;;;;;;15.39;100.00;97879.94;5052006;28;20043;-75
2023/06/03 02:29:01;;;;;;;1999.90;999.90;;;;;;;15.34;100.00;97886.44;5070571;28;20051;-74
2023/06/03 02:31:27;;;;;;;1999.90;999.90;;;;;;;15.35;100.00;97885.28;5052554;28;20020;-75
2023/06/03 02:33:52;;;;;;;1999.90;999.90;;;;;;;15.38;100.00;97881.88;5070679;28;20069;-75
2023/06/03 02:36:18;;;;;;;1999.90;999.90;;;;;;;15.36;100.00;97880.59;5070706;28;20480;-75
2023/06/03 02:38:44;;;;;;;1999.90;999.90;;;;;;;15.28;100.00;97875.91;5052777;28;20470;-73
2023/06/03 02:41:10;;;;;;;1999.90;999.90;;;;;;;15.31;100.00;97869.75;5052455;28;20029;-74
2023/06/03 02:43:35;;;;;;;1999.90;999.90;;;;;;;15.33;100.00;97884.00;5070890;28;20013;-74
2023/06/03 02:46:01;;;;;;;1999.90;999.90;;;;;;;15.28;100.00;97875.91;5064538;28;20050;-73
2023/06/03 02:48:26;;;;;;;1999.90;999.90;;;;;;;15.39;100.00;97882.69;5089217;28;20031;-74
2023/06/03 02:50:51;;;;;;;1999.90;999.90;;;;;;;15.37;100.00;97879.47;5090480;28;20069;-74
2023/06/03 02:53:17;;;;;;;1999.90;999.90;;;;;;;15.36;100.00;97884.16;5090672;28;20031;-74
2023/06/03 02:55:43;;;;;;;1999.90;999.90;;;;;;;15.25;100.00;97874.63;5089242;28;20069;-73
2023/06/03 02:58:08;;;;;;;1999.90;999.90;;;;;;;15.29;100.00;97875.56;5089600;28;20024;-74
2023/06/03 03:00:34;;;;;;;1999.90;999.90;;;;;;;15.37;100.00;97871.19;5090524;28;20629;-74
2023/06/03 03:03:01;;;;;;;1999.90;999.90;;;;;;;15.47;100.00;97882.69;5094415;28;20032;-74
2023/06/03 03:05:26;;;;;;;1999.90;999.90;;;;;;;15.49;100.00;97863.06;5094654;28;20024;-74
2023/06/03 03:07:51;;;;;;;1999.90;999.90;;;;;;;15.52;100.00;97865.97;5094601;28;20073;-74
2023/06/03 03:10:17;;;;;;;1999.90;999.90;;;;;;;15.44;100.00;97843.94;5092941;28;20027;-74
2023/06/03 03:12:42;;;;;;;1999.90;999.90;;;;;;;15.59;100.00;97873.75;5095132;28;20034;-74
2023/06/03 03:15:08;;;;;;;1999.90;999.90;;;;;;;15.59;100.00;97870.19;5094527;28;20031;-74
2023/06/03 03:17:33;;;;;;;1999.90;999.90;;;;;;;15.64;100.00;97870.78;5093123;28;20027;-74
2023/06/03 03:19:59;;;;;;;1999.90;999.90;;;;;;;15.66;100.00;97876.00;5094473;28;20115;-74
2023/06/03 03:22:27;;;;;;;1999.90;999.90;;;;;;;15.68;100.00;97876.47;5094284;28;20063;-74
2023/06/03 03:24:55;;;;;;;1999.90;999.90;;;;;;;15.65;100.00;97883.47;5094059;28;20024;-74
2023/06/03 03:27:20;;;;;;;1999.90;999.90;;;;;;;15.64;100.00;97883.78;5094198;28;20362;-74
2023/06/03 03:29:45;;;;;;;1999.90;999.90;;;;;;;15.68;100.00;97885.56;5094414;28;20031;-80
2023/06/03 03:32:12;;;;;;;1999.90;999.90;;;;;;;15.60;100.00;97888.34;5094122;28;20054;-74
2023/06/03 03:34:38;;;;;;;1999.90;999.90;;;;;;;15.30;100.00;97890.97;5092752;28;20446;-74
2023/06/03 03:37:09;;;;;;;1999.90;999.90;;;;;;;15.34;100.00;97893.91;5094396;28;20465;-74
2023/06/03 03:39:38;;;;;;;1999.90;999.90;;;;;;;15.16;100.00;97893.09;5094008;28;20032;-73
2023/06/03 03:42:04;;;;;;;1999.90;999.90;;;;;;;15.10;100.00;97908.19;5093002;28;20052;-74
2023/06/03 03:44:31;;;;;;;1999.90;999.90;;;;;;;15.15;100.00;97902.53;5092298;28;20544;-74
2023/06/03 03:47:00;;;;;;;1999.90;999.90;;;;;;;15.19;100.00;97900.72;5055546;28;20115;-73
2023/06/03 03:49:31;;;;;;;1999.90;999.90;;;;;;;15.25;100.00;97906.88;5073586;28;20028;-73
2023/06/03 03:52:03;;;;;;;1999.90;999.90;;;;;;;15.41;100.00;97908.00;5073236;28;20029;-74
2023/06/03 03:54:28;;;;;;;1999.90;999.90;;;;;;;15.52;100.00;97901.81;5055723;28;20052;-74
2023/06/03 03:56:55;;;;;;;1999.90;999.90;;;;;;;15.67;100.00;97910.69;5073266;28;20075;-74
2023/06/03 03:59:21;;;;;;;1999.90;999.90;;;;;;;15.64;100.00;97906.66;5055495;28;20028;-74
2023/06/03 04:01:48;;;;;;;1999.90;999.90;;;;;;;15.65;100.00;97907.47;5073564;28;20532;-74
2023/06/03 04:04:37;;;;;;;1999.90;999.90;;;;;;;15.49;100.00;97904.44;5073299;28;20032;-75
2023/06/03 04:07:03;;;;;;;1999.90;999.90;;;;;;;15.46;100.00;97924.34;5073138;28;20119;-74
2023/06/03 04:09:28;;;;;;;1999.90;999.90;;;;;;;15.44;100.00;97918.38;5073217;28;20039;-74
2023/06/03 04:11:53;;;;;;;1999.90;999.90;;;;;;;15.30;100.00;97935.06;5073331;28;20021;-74
2023/06/03 04:14:35;;;;;;;1999.90;999.90;;;;;;;15.50;100.00;97934.44;5054943;28;20033;-74
2023/06/03 04:17:02;;;;;;;1999.90;999.90;;;;;;;15.68;100.00;97935.19;5073051;28;20222;-74
2023/06/03 04:19:37;;;;;;;1999.90;999.90;;;;;;;15.62;100.00;97919.97;5055163;28;20063;-74
2023/06/03 04:22:05;;;;;;;1999.90;999.90;;;;;;;15.70;100.00;97935.66;5055061;28;20481;-74
2023/06/03 04:24:33;;;;;;;1999.90;999.90;;;;;;;15.76;100.00;97947.31;5072945;28;20036;-75
2023/06/03 04:26:59;;;;;;;1999.90;999.90;;;;;;;15.74;100.00;97947.66;5054799;28;20036;-75
2023/06/03 04:29:24;;;;;;;1999.90;999.90;;;;;;;15.80;100.00;97948.28;5054686;28;20480;-75
2023/06/03 04:31:50;;;;;;;1999.90;999.90;;;;;;;15.87;100.00;97943.91;5072751;28;20056;-74
2023/06/03 04:34:15;;;;;;;1999.90;999.90;;;;;;;15.97;100.00;97943.53;5067036;28;20033;-74
2023/06/03 04:36:40;;;;;;;1999.90;999.90;;;;;;;16.01;100.00;97946.44;5063899;28;20052;-75
2023/06/03 04:39:08;;;;;;;1999.90;999.90;;;;;;;16.04;100.00;97954.84;5036506;28;20583;-74
2023/06/03 04:41:34;;;;;;;1999.90;999.90;;;;;;;16.11;100.00;97959.06;5052001;28;20120;-74
2023/06/03 04:44:01;;;;;;;1999.90;999.90;;;;;;;16.16;100.00;97951.41;5052104;28;20117;-75
2023/06/03 04:46:29;;;;;;;1999.90;999.90;;;;;;;16.21;100.00;97959.50;5065852;28;20052;-75
2023/06/03 04:48:55;;;;;;;1999.90;999.90;;;;;;;16.29;100.00;97960.63;5072702;28;20040;-75
2023/06/03 04:51:22;;;;;;;1999.90;999.90;;;;;;;16.32;100.00;97962.72;5072039;28;20043;-74
2023/06/03 04:53:48;;;;;;;1999.90;999.90;;;;;;;16.35;100.00;97953.75;5076501;28;20063;-75
2023/06/03 04:56:14;;;;;;;1999.90;999.90;;;;;;;16.39;100.00;97962.97;5092390;28;20445;-75
2023/06/03 04:58:42;;;;;;;1999.90;999.90;;;;;;;16.43;100.00;97950.13;5090825;28;20028;-75
2023/06/03 05:01:08;;;;;;;1999.90;999.90;;;;;;;16.35;100.00;97948.25;5078679;28;20032;-74
2023/06/03 05:03:36;;;;;;;1999.90;999.90;;;;;;;16.42;100.00;97956.78;5083984;28;20061;-74
2023/06/03 05:06:04;;;;;;;1999.90;999.90;;;;;;;16.50;100.00;97958.72;5091862;28;20039;-76
2023/06/03 05:08:29;;;;;;;1999.90;999.90;;;;;;;16.53;100.00;97955.28;5091965;28;20484;-75
2023/06/03 05:10:55;;;;;;;1999.90;999.90;;;;;;;16.57;100.00;97965.34;5091998;28;20020;-75
2023/06/03 05:13:20;;;;;;;1999.90;999.90;;;;;;;16.50;100.00;97962.28;5091704;28;20032;-73
2023/06/03 05:15:45;;;;;;;1999.90;999.90;;;;;;;16.50;100.00;97961.47;5080589;28;20025;-75
2023/06/03 05:18:11;;;;;;;1999.90;999.90;;;;;;;16.43;100.00;97955.66;5070255;28;20031;-73
2023/06/03 05:20:36;;;;;;;1999.90;999.90;;;;;;;16.57;100.00;97967.31;5070254;28;20074;-74
2023/06/03 05:23:01;;;;;;;1999.90;999.90;;;;;;;16.55;100.00;97964.06;5071195;28;20074;-74
2023/06/03 05:25:27;;;;;;;1999.90;999.90;;;;;;;16.56;100.00;97971.22;5068853;28;20025;-74
2023/06/03 05:27:52;;;;;;;1999.90;999.90;;;;;;;16.49;100.00;97968.13;5071356;28;20178;-73
2023/06/03 05:30:17;;;;;;;1999.90;999.90;;;;;;;16.54;100.00;97965.16;5071325;28;20031;-75
2023/06/03 05:32:43;;;;;;;1999.90;999.90;;;;;;;16.68;100.00;97967.72;5083517;28;20043;-75
2023/06/03 05:35:09;;;;;;;1999.90;999.90;;;;;;;16.62;100.00;97975.41;5090134;28;20028;-74
2023/06/03 05:37:34;;;;;;;1999.90;999.90;;;;;;;16.64;100.00;97972.28;5091388;28;20400;-73
2023/06/03 05:40:00;;;;;;;1999.90;999.90;;;;;;;16.63;100.00;97971.50;5091444;28;20026;-74
2023/06/03 05:42:25;;;;;;;1999.90;999.90;;;;;;;16.60;100.00;97984.00;5089487;28;20622;-74
2023/06/03 05:44:50;;;;;;;1999.90;999.90;;;;;;;16.51;100.00;97972.16;5087655;28;20052;-75
2023/06/03 05:47:16;;;;;;;1999.90;999.90;;;;;;;16.53;100.00;97986.47;5071669;28;20550;-75
2023/06/03 05:49:41;;;;;;;1999.90;999.90;;;;;;;16.56;100.00;97983.06;5052918;28;20055;-74
2023/06/03 05:52:07;;;;;;;1999.90;999.90;;;;;;;16.64;100.00;97984.16;5070943;28;20031;-74
2023/06/03 05:54:32;;;;;;;1999.90;999.90;;;;;;;16.65;100.00;97990.50;5053151;28;20142;-74
2023/06/03 05:56:58;;;;;;;1999.90;999.90;;;;;;;16.60;100.00;97988.75;5040066;28;20067;-74
2023/06/03 05:59:24;;;;;;;1999.90;999.90;;;;;;;16.55;100.00;97991.69;5050816;28;20120;-74
2023/06/03 06:01:49;;;;;;;1999.90;999.90;;;;;;;16.43;100.00;97991.56;5064389;28;20025;-73
2023/06/03 06:04:15;;;;;;;1999.90;999.90;;;;;;;16.58;100.00;97991.00;5070619;28;20028;-74
2023/06/03 06:06:40;;;;;;;1999.90;999.90;;;;;;;16.54;100.00;98001.06;5070534;28;20032;-74
2023/06/03 06:09:06;;;;;;;1999.90;999.90;;;;;;;16.52;100.00;97992.31;5070381;28;20020;-74
2023/06/03 06:11:31;;;;;;;1999.90;999.90;;;;;;;16.60;100.00;97994.28;5070549;28;20108;-74
2023/06/03 06:13:56;;;;;;;1999.90;999.90;;;;;;;16.53;100.00;97991.19;5071144;28;20054;-73
2023/06/03 06:16:22;;;;;;;1999.90;999.90;;;;;;;16.60;100.00;98008.06;5052655;28;20032;-74
2023/06/03 06:18:48;;;;;;;1999.90;999.90;;;;;;;16.66;100.00;98009.50;5070555;28;20029;-73
2023/06/03 06:21:15;;;;;;;1999.90;999.90;;;;;;;16.56;100.00;98007.13;5070391;28;20028;-74
2023/06/03 06:23:42;;;;;;;1999.90;999.90;;;;;;;16.45;100.00;98009.41;5052500;28;20560;-74
2023/06/03 06:26:07;;;;;;;1999.90;999.90;;;;;;;16.42;100.00;98014.78;5052097;28;20044;-74
2023/06/03 06:28:39;;;;;;;1999.90;999.90;;;;;;;16.51;100.00;98012.78;5052147;28;20016;-73
2023/06/03 06:31:05;;;;;;;1999.90;999.90;;;;;;;16.50;100.00;98028.56;5059549;28;20424;-73
2023/06/03 06:33:33;;;;;;;1999.90;999.90;;;;;;;16.46;100.00;98018.50;5050159;28;20155;-73
2023/06/03 06:36:20;;;;;;;1999.90;999.90;;;;;;;16.53;100.00;98024.31;5049798;28;20035;-73
2023/06/03 06:38:45;;;;;;;1999.90;999.90;;;;;;;16.59;100.00;98020.25;5050140;28;20040;-73
2023/06/03 06:41:13;;;;;;;1999.90;999.90;;;;;;;16.56;100.00;98024.50;5050153;28;20377;-74
2023/06/03 06:43:39;;;;;;;1999.90;999.90;;;;;;;16.60;100.00;98035.69;5050562;28;20432;-73
2023/06/03 06:46:05;;;;;;;1999.90;999.90;;;;;;;16.54;100.00;98039.72;5050084;28;20048;-73
2023/06/03 06:48:34;;;;;;;1999.90;999.90;;;;;;;16.36;100.00;98027.16;5050002;28;20065;-73
2023/06/03 06:51:00;;;;;;;1999.90;999.90;;;;;;;16.49;100.00;98045.44;5049941;28;20029;-72
2023/06/03 06:53:27;;;;;;;1999.90;999.90;;;;;;;16.32;100.00;98037.25;5032133;28;20031;-72
2023/06/03 06:56:03;;;;;;;1999.90;999.90;;;;;;;16.33;100.00;98036.09;5032028;28;20029;-72
2023/06/03 06:58:38;;;;;;;1999.90;999.90;;;;;;;16.24;100.00;98038.06;5032007;28;20021;-72
2023/06/03 07:01:05;;;;;;;1999.90;999.90;;;;;;;16.37;100.00;98045.34;5049932;28;20036;-73
2023/06/03 07:03:32;;;;;;;1999.90;999.90;;;;;;;16.50;100.00;98052.59;5049940;28;20116;-73
2023/06/03 07:05:58;;;;;;;1999.90;999.90;;;;;;;16.43;100.00;98044.00;5049735;28;20509;-73
2023/06/03 07:08:24;;;;;;;1999.90;999.90;;;;;;;16.53;100.00;98054.69;5050042;28;20025;-72
2023/06/03 07:10:50;;;;;;;1999.90;999.90;;;;;;;16.51;100.00;98051.44;5032089;28;20014;-72
2023/06/03 07:13:15;;;;;;;1999.90;999.90;;;;;;;16.42;100.00;98053.44;5049759;28;20031;-72
2023/06/03 07:15:42;;;;;;;1999.90;999.90;;;;;;;16.46;100.00;98062.69;5052168;28;20054;-72
2023/06/03 07:18:09;;;;;;;1999.90;999.90;;;;;;;16.39;100.00;98065.94;5057585;28;20385;-72
2023/06/03 07:20:46;;;;;;;1999.90;999.90;;;;;;;16.33;100.00;98066.47;5062089;28;20097;-71
2023/06/03 07:23:24;;;;;;;1999.90;999.90;;;;;;;16.34;100.00;98068.09;5054990;28;20052;-74
2023/06/03 07:25:51;;;;;;;1999.90;999.90;;;;;;;16.31;100.00;98068.75;5064096;28;20512;-73
2023/06/03 07:28:23;;;;;;;1999.90;999.90;;;;;;;16.33;100.00;98067.28;5051660;28;20135;-72
2023/06/03 07:30:52;;;;;;;1999.90;999.90;;;;;;;16.06;100.00;98073.19;5063918;28;20017;-72
2023/06/03 07:33:33;;;;;;;1999.90;999.90;;;;;;;16.16;100.00;98080.31;5049864;28;20029;-71
2023/06/03 07:36:01;;;;;;;1999.90;999.90;;;;;;;16.46;100.00;98071.78;5049933;28;20040;-71
2023/06/03 07:38:39;;;;;;;1999.90;999.90;;;;;;;16.27;100.00;98090.69;5049794;28;20048;-72
2023/06/03 07:41:09;;;;;;;1999.90;999.90;;;;;;;16.19;100.00;98082.44;5049068;28;20029;-72
2023/06/03 07:43:38;;;;;;;1999.90;999.90;;;;;;;16.30;100.00;98090.03;5049542;28;20138;-72
2023/06/03 07:46:05;;;;;;;1999.90;999.90;;;;;;;16.20;100.00;98092.31;5052194;28;20131;-73
2023/06/03 07:48:30;;;;;;;1999.90;999.90;;;;;;;16.41;100.00;98096.00;5061464;28;21150;-75
2023/06/03 07:50:55;;;;;;;1999.90;999.90;;;;;;;16.62;100.00;98091.41;5063016;28;20056;-79
2023/06/03 07:53:24;;;;;;;1999.90;999.90;;;;;;;16.44;100.00;98104.44;5048552;28;20388;-75
2023/06/03 07:55:50;;;;;;;1999.90;999.90;;;;;;;16.52;100.00;98103.59;5063667;28;20037;-74
2023/06/03 07:58:17;;;;;;;1999.90;999.90;;;;;;;16.83;100.00;98110.81;5061352;28;20039;-73
2023/06/03 08:00:51;;;;;;;1999.90;999.90;;;;;;;16.74;100.00;98116.38;5061815;28;20017;-73
2023/06/03 08:03:19;;;;;;;1999.90;999.90;;;;;;;16.88;100.00;98113.41;5061780;28;20097;-73
2023/06/03 08:05:47;;;;;;;1999.90;999.90;;;;;;;17.00;100.00;98113.50;5064250;28;20397;-74
2023/06/03 08:08:14;;;;;;;1999.90;999.90;;;;;;;17.11;100.00;98121.06;5061282;28;20029;-75
2023/06/03 08:10:42;;;;;;;1999.90;999.90;;;;;;;17.18;100.00;98109.50;5064609;28;20078;-74
2023/06/03 08:13:07;;;;;;;1999.90;999.90;;;;;;;17.40;100.00;98116.66;5044651;28;20020;-73
2023/06/03 08:15:37;;;;;;;1999.90;999.90;;;;;;;17.50;100.00;98124.56;5062562;28;20040;-73
2023/06/03 08:18:04;;;;;;;1999.90;999.90;;;;;;;17.37;100.00;98128.41;5059990;28;20485;-74
2023/06/03 08:20:30;;;;;;;1999.90;999.90;;;;;;;17.27;100.00;98126.03;5059139;28;20508;-73
2023/06/03 08:22:58;;;;;;;1999.90;999.90;;;;;;;17.11;100.00;98123.03;5058599;28;20052;-76
2023/06/03 08:25:23;;;;;;;1999.90;999.90;;;;;;;17.07;100.00;98131.16;5061249;28;20021;-75
2023/06/03 08:27:49;;;;;;;1999.90;999.90;;;;;;;16.97;100.00;98125.22;5059558;28;20037;-74
2023/06/03 08:30:15;;;;;;;1999.90;999.90;;;;;;;16.98;100.00;98127.63;5061925;28;20012;-75
2023/06/03 08:32:42;;;;;;;1999.90;999.90;;;;;;;16.92;100.00;98119.88;5061246;28;20111;-75
2023/06/03 08:35:09;;;;;;;1999.90;999.90;;;;;;;16.85;100.00;98130.66;5046883;28;20078;-74
2023/06/03 08:37:35;;;;;;;1999.90;999.90;;;;;;;17.04;100.00;98123.53;5058064;28;20029;-76
2023/06/03 08:40:05;;;;;;;1999.90;999.90;;;;;;;17.07;100.00;98136.69;5065498;28;20028;-76
2023/06/03 08:42:39;;;;;;;1999.90;999.90;;;;;;;17.00;100.00;98135.59;5060728;28;20088;-76
2023/06/03 08:45:12;;;;;;;1999.90;999.90;;;;;;;16.82;100.00;98134.84;5061425;28;20072;-76
2023/06/03 08:47:54;;;;;;;1999.90;999.90;;;;;;;16.98;100.00;98146.97;5044066;28;20428;-75
2023/06/03 08:50:21;;;;;;;1999.90;999.90;;;;;;;17.12;100.00;98142.06;5064061;28;20098;-77
2023/06/03 08:52:48;;;;;;;1999.90;999.90;;;;;;;17.12;100.00;98144.00;5037019;28;20017;-73
2023/06/03 08:55:17;;;;;;;1999.90;999.90;;;;;;;17.16;100.00;98138.63;5062210;28;20168;-74
2023/06/03 08:57:45;;;;;;;1999.90;999.90;;;;;;;17.23;100.00;98149.97;5068752;28;20525;-77
2023/06/03 09:00:12;;;;;;;1999.90;999.90;;;;;;;17.20;100.00;98151.44;5062449;28;20032;-75
2023/06/03 09:02:38;;;;;;;1999.90;999.90;;;;;;;17.53;100.00;98148.81;5046779;28;20024;-76
2023/06/03 09:05:04;;;;;;;1999.90;999.90;;;;;;;17.54;100.00;98151.22;5063953;28;20025;-76
2023/06/03 09:07:33;;;;;;;1999.90;999.90;;;;;;;17.72;100.00;98153.91;5044509;28;20124;-76
2023/06/03 09:10:02;;;;;;;1999.90;999.90;;;;;;;17.72;100.00;98163.03;5043497;28;20016;-74
2023/06/03 09:12:27;;;;;;;1999.90;999.90;;;;;;;17.68;100.00;98159.31;5048392;28;20032;-75
2023/06/03 09:14:57;;;;;;;1999.90;999.90;;;;;;;17.58;100.00;98162.44;5062770;28;21035;-74
2023/06/03 09:17:24;;;;;;;1999.90;999.90;;;;;;;17.56;100.00;98160.03;5058127;28;20112;-78
2023/06/03 09:19:50;;;;;;;1999.90;999.90;;;;;;;17.63;100.00;98168.63;5037034;28;20031;-75
2023/06/03 09:22:17;;;;;;;1999.90;999.90;;;;;;;17.82;100.00;98165.41;5060227;28;20020;-76
2023/06/03 09:24:42;;;;;;;1999.90;999.90;;;;;;;17.85;100.00;98166.66;5061144;28;20029;-76
2023/06/03 09:27:08;;;;;;;1999.90;999.90;;;;;;;17.92;100.00;98166.91;5060687;28;20035;-74
2023/06/03 09:29:33;;;;;;;1999.90;999.90;;;;;;;17.94;100.00;98167.41;5062092;28;20538;-77
2023/06/03 09:31:59;;;;;;;1999.90;999.90;;;;;;;17.84;100.00;98171.38;5042122;28;20478;-76
2023/06/03 09:34:26;;;;;;;1999.90;999.90;;;;;;;17.80;100.00;98170.44;5059992;28;20128;-76
2023/06/03 09:36:51;;;;;;;1999.90;999.90;;;;;;;17.76;100.00;98165.94;5042779;28;20032;-74
2023/06/03 09:39:31;;;;;;;1999.90;999.90;;;;;;;17.63;100.00;98168.63;5059469;28;20024;-75
2023/06/03 09:41:57;;;;;;;1999.90;999.90;;;;;;;17.71;100.00;98163.34;5054531;28;20474;-74
2023/06/03 09:44:24;;;;;;;1999.90;999.90;;;;;;;17.81;100.00;98172.06;5068336;28;20036;-74
2023/06/03 09:46:50;;;;;;;1999.90;999.90;;;;;;;17.91;100.00;98173.63;5071225;28;20036;-74
2023/06/03 09:49:17;;;;;;;1999.90;999.90;;;;;;;17.81;100.00;98169.28;5058585;28;20044;-74
2023/06/03 09:51:44;;;;;;;1999.90;999.90;;;;;;;17.90;100.00;98170.03;5062627;28;20009;-75
2023/06/03 09:54:18;;;;;;;1999.90;999.90;;;;;;;18.07;100.00;98175.41;5061877;28;20090;-74
2023/06/03 09:56:45;;;;;;;1999.90;999.90;;;;;;;17.90;100.00;98169.22;5063167;28;20047;-74
2023/06/03 09:59:21;;;;;;;1999.90;999.90;;;;;;;17.96;100.00;98168.69;5059771;28;20028;-75
2023/06/03 10:01:52;;;;;;;1999.90;999.90;;;;;;;18.15;100.00;98166.25;5049091;28;20174;-75
2023/06/03 10:04:22;;;;;;;1999.90;999.90;;;;;;;18.03;100.00;98177.25;5047569;28;20481;-75
2023/06/03 10:06:49;;;;;;;1999.90;999.90;;;;;;;18.04;100.00;98169.78;5035823;28;20036;-74
2023/06/03 10:09:21;;;;;;;1999.90;999.90;;;;;;;17.87;100.00;98169.91;5056454;28;20036;-74
2023/06/03 10:11:49;;;;;;;1999.90;999.90;;;;;;;17.80;100.00;98175.97;5039327;28;20020;-74
2023/06/03 10:14:15;;;;;;;1999.90;999.90;;;;;;;17.97;100.00;98163.97;5054288;28;20029;-74
2023/06/03 10:16:42;;;;;;;1999.90;999.90;;;;;;;18.12;100.00;98177.19;5047541;28;20036;-75
2023/06/03 10:19:08;;;;;;;1999.90;999.90;;;;;;;18.08;100.00;98177.03;5039864;28;20133;-76
2023/06/03 10:21:36;;;;;;;1999.90;999.90;;;;;;;18.02;100.00;98175.63;5058443;28;20746;-75
2023/06/03 10:24:04;;;;;;;1999.90;999.90;;;;;;;17.83;100.00;98169.75;5065457;28;20017;-76
2023/06/03 10:26:30;;;;;;;1999.90;999.90;;;;;;;17.86;100.00;98171.03;5052416;28;20051;-74
2023/06/03 10:28:58;;;;;;;1999.90;999.90;;;;;;;18.05;100.00;98177.72;5038788;28;20021;-75
2023/06/03 10:31:25;;;;;;;1999.90;999.90;;;;;;;17.91;100.00;98168.91;5059609;28;20405;-73
2023/06/03 10:33:51;;;;;;;1999.90;999.90;;;;;;;17.92;100.00;98172.44;5055766;28;20029;-75
2023/06/03 10:36:18;;;;;;;1999.90;999.90;;;;;;;17.89;100.00;98173.94;5055363;28;20025;-76
2023/06/03 10:38:44;;;;;;;1999.90;999.90;;;;;;;18.07;100.00;98172.66;5050940;28;20052;-75
2023/06/03 10:41:12;;;;;;;1999.90;999.90;;;;;;;18.15;100.00;98169.00;5057978;28;20052;-74
2023/06/03 10:43:39;;;;;;;1999.90;999.90;;;;;;;17.96;100.00;98165.91;5039543;28;20021;-75
2023/06/03 10:46:04;;;;;;;1999.90;999.90;;;;;;;18.56;100.00;98162.63;5063243;28;20109;-75
2023/06/03 10:48:31;;;;;;;1999.90;999.90;;;;;;;18.67;100.00;98165.75;5052852;28;20025;-75